Airfield :
LOGIN :

Register | Disclaimer

   EN    FR    IT 

 










Legend :    VFR   Marginal VFR   IFR   Intensive IFR   Very Intensive IFR
Visi :
Ceiling :
>= 8 km
>= 3000ft
5 to 8 km
1000 to 3000 ft
1500m to 5 km
500 to 1000 ft
800 to 1500m
200 to 500 ft
< 800m
< 200 ft
Symbols :   Thunderstorms  Fog  Heavy snow  Heavy precipitations  Wind > 20 kt
SIGMETs :     Misc.  Thunderstorms  Icing  Turbulence  Mountain Waves  Volcanic Ashes







- Airport Elevation : 768 ft
- IATA code : MXP


LIMC - Milano Malpensa

CURRENT METAR :
  • 251420Z 12008KT 9000 BKN040 16/10 Q1011 NOSIG

EXPIRED METARs :
  • 251350Z 12008KT 9999 BKN040 16/10 Q1011 NOSIG
  • 251320Z 13009KT 9999 SCT030 BKN050 16/10 Q1011 NOSIG
  • 251250Z 12007KT 100V160 9999 SCT030 BKN050 16/10 Q1012 NOSIG
  • 251220Z 17005KT 9999 SCT030 BKN050 16/10 Q1012 NOSIG
  • 251150Z 19005KT 120V240 9999 SCT030 BKN050 16/09 Q1013 NOSIG

TAF TAF LIMC
Valid from the 25 at 12:00 until the 26 at 18:00 UTC


251100Z 2512/2618 VRB05KT 9999 SCT025 BKN060
BECMG 2521/2523 4000 RA
No reported NOTAMs for that airfield.



MET'MAP, your aeronautical weather chart ! - Copyright ORBIFLY December 2007 - Disclaimer

ORBIFLY MET'MAP TEAM :

Programming & Development : Alexandra Zaïnal
Concept & Development : Baudouin d'Aumeries
Co-Development & Prog : Marc-Olivier Méhu
Technical & hardware support : Manuel Goepfert

Contact : metmap@orbifly.com




SOURCES & CREDITS :

   NOAA